Time;durP1;ratioP1;P1;durP2;ratioP2;P2;SDS_P1;SDS_P2;PMS_P1;PMS_P2;Temp;Humidity;BMP_temperature;BMP_pressure;BME280_temperature;BME280_humidity;BME280_pressure;Samples;Min_cycle;Max_cycle;Signal;HPM_P1;HPM_P2
2022/09/04 00:01:11;;;;;;;17.95;17.08;;;;;;;;;;5022556;28;20378;-78
2022/09/04 00:03:41;;;;;;;0.40;0.40;;;;;;;;;;5016716;28;20341;-77
2022/09/04 00:06:13;;;;;;;0.00;0.00;;;;;;;;;;5023255;28;20031;-78
2022/09/04 00:08:56;;;;;;;0.00;0.00;;;;;;;;;;5049868;28;20125;-78
2022/09/04 00:11:37;;;;;;;0.00;0.00;;;;;;;;;;5064144;28;20035;-78
2022/09/04 00:14:09;;;;;;;0.00;0.00;;;;;;;;;;5032057;28;20021;-78
2022/09/04 00:16:59;;;;;;;0.00;0.00;;;;;;;;;;5094594;28;20043;-78
2022/09/04 00:19:32;;;;;;;0.00;0.00;;;;;;;;;;5094366;28;20021;-78
2022/09/04 00:22:00;;;;;;;0.38;0.38;;;;;;;;;;5094356;28;20024;-79
2022/09/04 00:24:36;;;;;;;0.00;0.00;;;;;;;;;;5094308;28;20095;-78
2022/09/04 00:27:02;;;;;;;0.00;0.00;;;;;;;;;;5019415;28;20037;-78
2022/09/04 00:29:47;;;;;;;0.00;0.00;;;;;;;;;;4991704;28;20376;-78
2022/09/04 00:32:13;;;;;;;0.00;0.00;;;;;;;;;;4993784;28;20025;-78
2022/09/04 00:34:47;;;;;;;3.35;3.20;;;;;;;;;;4991339;28;20416;-78
2022/09/04 00:37:16;;;;;;;0.00;0.00;;;;;;;;;;4986687;28;20380;-78
2022/09/04 00:39:49;;;;;;;0.00;0.00;;;;;;;;;;4990848;28;20039;-78
2022/09/04 00:42:19;;;;;;;0.00;0.00;;;;;;;;;;4990607;28;20030;-78
2022/09/04 00:45:00;;;;;;;0.00;0.00;;;;;;;;;;4990791;28;20048;-78
2022/09/04 00:47:37;;;;;;;0.00;0.00;;;;;;;;;;4971916;28;20035;-78
2022/09/04 00:50:10;;;;;;;0.00;0.00;;;;;;;;;;4981125;28;20045;-78
2022/09/04 00:52:51;;;;;;;0.00;0.00;;;;;;;;;;4991499;28;20050;-78
2022/09/04 00:55:36;;;;;;;0.90;0.90;;;;;;;;;;4972017;28;20140;-78
2022/09/04 00:58:02;;;;;;;0.00;0.00;;;;;;;;;;4980870;28;20037;-77
2022/09/04 01:00:29;;;;;;;0.00;0.00;;;;;;;;;;4991279;28;20101;-78
2022/09/04 01:02:56;;;;;;;0.15;0.15;;;;;;;;;;4990456;28;20064;-78
2022/09/04 01:05:22;;;;;;;0.00;0.00;;;;;;;;;;4991297;28;20027;-78
2022/09/04 01:08:00;;;;;;;0.00;0.00;;;;;;;;;;4991721;28;20109;-79
2022/09/04 01:10:30;;;;;;;0.00;0.00;;;;;;;;;;4991043;28;20465;-78
2022/09/04 01:13:15;;;;;;;0.00;0.00;;;;;;;;;;4991083;28;20023;-78
2022/09/04 01:15:48;;;;;;;0.00;0.00;;;;;;;;;;4991253;28;20022;-78
2022/09/04 01:18:21;;;;;;;0.00;0.00;;;;;;;;;;4991174;28;20042;-78
2022/09/04 01:20:53;;;;;;;0.00;0.00;;;;;;;;;;4986019;28;20034;-78
2022/09/04 01:23:38;;;;;;;0.00;0.00;;;;;;;;;;5053019;28;20294;-78
2022/09/04 01:26:22;;;;;;;0.00;0.00;;;;;;;;;;5007517;28;20031;-78
2022/09/04 01:29:09;;;;;;;0.05;0.05;;;;;;;;;;4994415;28;20030;-78
2022/09/04 01:31:35;;;;;;;3.70;3.40;;;;;;;;;;5028546;28;20032;-78
2022/09/04 01:34:01;;;;;;;0.00;0.00;;;;;;;;;;5012948;28;20033;-78
2022/09/04 01:36:36;;;;;;;0.00;0.00;;;;;;;;;;5031141;28;20104;-79
2022/09/04 01:39:03;;;;;;;0.00;0.00;;;;;;;;;;4989042;28;20018;-79
2022/09/04 01:41:33;;;;;;;3.20;3.10;;;;;;;;;;5008172;28;20054;-78
2022/09/04 01:44:00;;;;;;;0.00;0.00;;;;;;;;;;4997158;28;20113;-78
2022/09/04 01:46:35;;;;;;;5.15;4.85;;;;;;;;;;5008608;28;20050;-78
2022/09/04 01:49:20;;;;;;;0.00;0.00;;;;;;;;;;4990845;28;20400;-78
2022/09/04 01:51:52;;;;;;;0.00;0.00;;;;;;;;;;4999509;28;20519;-78
2022/09/04 01:54:34;;;;;;;0.00;0.00;;;;;;;;;;5020375;28;20135;-79
2022/09/04 01:57:12;;;;;;;0.00;0.00;;;;;;;;;;4988242;28;20365;-78
2022/09/04 01:59:54;;;;;;;0.00;0.00;;;;;;;;;;4986738;28;20039;-79
2022/09/04 02:02:24;;;;;;;0.40;0.40;;;;;;;;;;4988564;28;20065;-79
2022/09/04 02:05:09;;;;;;;0.00;0.00;;;;;;;;;;4984267;28;20038;-79
2022/09/04 02:07:43;;;;;;;0.20;0.20;;;;;;;;;;4984413;28;20031;-79
2022/09/04 02:10:09;;;;;;;0.00;0.00;;;;;;;;;;5000887;28;20415;-78
2022/09/04 02:12:49;;;;;;;0.00;0.00;;;;;;;;;;5068928;28;20028;-79
2022/09/04 02:15:34;;;;;;;0.00;0.00;;;;;;;;;;5032562;28;20336;-78
2022/09/04 02:18:11;;;;;;;0.00;0.00;;;;;;;;;;4989202;28;20023;-79
2022/09/04 02:20:39;;;;;;;0.00;0.00;;;;;;;;;;5025069;28;20125;-79
2022/09/04 02:23:05;;;;;;;0.00;0.00;;;;;;;;;;5003835;28;20020;-79
2022/09/04 02:25:44;;;;;;;0.00;0.00;;;;;;;;;;5011888;28;20031;-79
2022/09/04 02:28:16;;;;;;;0.00;0.00;;;;;;;;;;5020489;28;20492;-78
2022/09/04 02:30:54;;;;;;;0.10;0.10;;;;;;;;;;4998961;28;20051;-79
2022/09/04 02:33:28;;;;;;;0.00;0.00;;;;;;;;;;5005665;28;20062;-79
2022/09/04 02:36:07;;;;;;;0.00;0.00;;;;;;;;;;5000491;28;20417;-79
2022/09/04 02:38:36;;;;;;;0.22;0.22;;;;;;;;;;4990812;28;20030;-79
2022/09/04 02:41:02;;;;;;;0.00;0.00;;;;;;;;;;4994730;28;20180;-79
2022/09/04 02:43:58;;;;;;;0.00;0.00;;;;;;;;;;4993062;28;20033;-79
2022/09/04 02:46:44;;;;;;;0.10;0.10;;;;;;;;;;4995133;28;20042;-80
2022/09/04 02:49:18;;;;;;;0.00;0.00;;;;;;;;;;4989614;28;20038;-78
2022/09/04 02:51:52;;;;;;;0.00;0.00;;;;;;;;;;5066100;28;20483;-79
2022/09/04 02:54:37;;;;;;;0.32;0.32;;;;;;;;;;4995759;28;20497;-79
2022/09/04 02:57:10;;;;;;;0.00;0.00;;;;;;;;;;5008548;28;20031;-79
2022/09/04 03:00:03;;;;;;;0.50;0.50;;;;;;;;;;4999558;28;20034;-79
2022/09/04 03:02:45;;;;;;;0.47;0.40;;;;;;;;;;5026922;28;20042;-79
2022/09/04 03:05:12;;;;;;;0.10;0.10;;;;;;;;;;4988579;28;20041;-79
2022/09/04 03:07:49;;;;;;;0.45;0.45;;;;;;;;;;5008950;28;20105;-79
2022/09/04 03:10:17;;;;;;;0.00;0.00;;;;;;;;;;5029777;28;20027;-78
2022/09/04 03:12:43;;;;;;;4.30;1.27;;;;;;;;;;4995632;28;20089;-78
2022/09/04 03:15:17;;;;;;;1.90;1.77;;;;;;;;;;5046736;28;20031;-77
2022/09/04 03:17:49;;;;;;;0.70;0.55;;;;;;;;;;5016288;28;20056;-78
2022/09/04 03:20:36;;;;;;;1.45;1.35;;;;;;;;;;4995668;28;20368;-78
2022/09/04 03:23:12;;;;;;;0.10;0.10;;;;;;;;;;4982992;28;20030;-78
2022/09/04 03:25:57;;;;;;;0.93;0.93;;;;;;;;;;4987069;28;20384;-79
2022/09/04 03:28:27;;;;;;;5.38;5.07;;;;;;;;;;4996663;28;20022;-79
2022/09/04 03:30:57;;;;;;;0.00;0.00;;;;;;;;;;4995998;28;20041;-79
2022/09/04 03:33:37;;;;;;;0.68;0.30;;;;;;;;;;4986737;28;20022;-79
2022/09/04 03:36:17;;;;;;;0.22;0.22;;;;;;;;;;4989329;28;20026;-80
2022/09/04 03:39:01;;;;;;;0.20;0.20;;;;;;;;;;4987785;28;20031;-79
2022/09/04 03:41:30;;;;;;;0.00;0.00;;;;;;;;;;4988141;28;20036;-78
2022/09/04 03:43:57;;;;;;;0.38;0.38;;;;;;;;;;4990581;28;20026;-78
2022/09/04 03:46:32;;;;;;;0.38;0.38;;;;;;;;;;4985544;28;20114;-78
2022/09/04 03:49:10;;;;;;;2.08;1.98;;;;;;;;;;4993908;28;20034;-80
2022/09/04 03:51:43;;;;;;;8.20;4.88;;;;;;;;;;5013165;28;20825;-78
2022/09/04 03:54:28;;;;;;;1.88;1.73;;;;;;;;;;5009259;28;20087;-80
2022/09/04 03:57:03;;;;;;;1.85;1.77;;;;;;;;;;4990372;28;20022;-79
2022/09/04 03:59:29;;;;;;;0.52;0.52;;;;;;;;;;4984795;28;20434;-79
2022/09/04 04:02:00;;;;;;;0.10;0.10;;;;;;;;;;5005950;28;20509;-78
2022/09/04 04:04:46;;;;;;;0.00;0.00;;;;;;;;;;5003289;28;20075;-79
2022/09/04 04:07:22;;;;;;;1.70;1.60;;;;;;;;;;4983927;28;20029;-79
2022/09/04 04:09:48;;;;;;;0.00;0.00;;;;;;;;;;4984235;28;20026;-78
2022/09/04 04:12:33;;;;;;;0.25;0.25;;;;;;;;;;4993397;28;20034;-79
2022/09/04 04:15:05;;;;;;;0.22;0.22;;;;;;;;;;4984198;28;20117;-77
2022/09/04 04:17:50;;;;;;;3.05;2.92;;;;;;;;;;4981878;28;20657;-78
2022/09/04 04:20:33;;;;;;;0.00;0.00;;;;;;;;;;4994432;28;20034;-78
2022/09/04 04:23:03;;;;;;;0.00;0.00;;;;;;;;;;5016417;28;20026;-79
2022/09/04 04:25:47;;;;;;;0.00;0.00;;;;;;;;;;5004268;28;20088;-79
2022/09/04 04:28:58;;;;;;;0.00;0.00;;;;;;;;;;5011571;28;20037;-79
2022/09/04 04:31:39;;;;;;;0.00;0.00;;;;;;;;;;5009473;28;20965;-78
2022/09/04 04:34:27;;;;;;;0.00;0.00;;;;;;;;;;5010784;28;20026;-79
2022/09/04 04:36:54;;;;;;;1.25;0.80;;;;;;;;;;5003779;28;20091;-79
2022/09/04 04:39:31;;;;;;;0.00;0.00;;;;;;;;;;5007466;28;20012;-79
2022/09/04 04:42:17;;;;;;;0.00;0.00;;;;;;;;;;5018523;28;20037;-78
2022/09/04 04:47:53;;;;;;;0.00;0.00;;;;;;;;;;5003886;28;20111;-78
2022/09/04 04:50:19;;;;;;;1.55;1.45;;;;;;;;;;4996805;28;20028;-79
2022/09/04 04:53:13;;;;;;;2.35;1.75;;;;;;;;;;5007176;28;20037;-80
2022/09/04 04:55:57;;;;;;;0.00;0.00;;;;;;;;;;5006448;28;20039;-79
2022/09/04 04:58:44;;;;;;;0.08;0.08;;;;;;;;;;4987417;28;20050;-80
2022/09/04 05:01:29;;;;;;;0.30;0.30;;;;;;;;;;4991697;28;20042;-79
2022/09/04 05:04:06;;;;;;;0.10;0.10;;;;;;;;;;4982920;28;20048;-80
2022/09/04 05:06:35;;;;;;;1.25;1.25;;;;;;;;;;4984866;28;20143;-79
2022/09/04 05:09:08;;;;;;;0.75;0.40;;;;;;;;;;4983925;28;20052;-79
2022/09/04 05:11:39;;;;;;;0.85;0.45;;;;;;;;;;4979281;28;20034;-79
2022/09/04 05:14:18;;;;;;;2.25;2.17;;;;;;;;;;4982790;28;20023;-79
2022/09/04 05:16:48;;;;;;;3.10;0.85;;;;;;;;;;4990789;28;20478;-79
2022/09/04 05:19:21;;;;;;;0.00;0.00;;;;;;;;;;4986387;28;20022;-80
2022/09/04 05:22:00;;;;;;;0.40;0.40;;;;;;;;;;4989324;28;20027;-79
2022/09/04 05:24:32;;;;;;;0.47;0.47;;;;;;;;;;4979639;28;20400;-81
2022/09/04 05:26:59;;;;;;;0.20;0.20;;;;;;;;;;4983025;28;20532;-79
2022/09/04 05:29:31;;;;;;;2.88;1.23;;;;;;;;;;5002874;28;20107;-79
2022/09/04 05:32:01;;;;;;;0.10;0.10;;;;;;;;;;4989433;28;20453;-80
2022/09/04 05:34:36;;;;;;;0.22;0.22;;;;;;;;;;4990317;28;20029;-79
2022/09/04 05:37:18;;;;;;;0.13;0.13;;;;;;;;;;4990542;28;20420;-79
2022/09/04 05:39:44;;;;;;;0.13;0.13;;;;;;;;;;4990891;28;20031;-80
2022/09/04 05:42:21;;;;;;;2.28;1.38;;;;;;;;;;5032288;28;20051;-79
2022/09/04 05:44:50;;;;;;;0.00;0.00;;;;;;;;;;5045208;28;20023;-80
2022/09/04 05:47:19;;;;;;;0.00;0.00;;;;;;;;;;5001420;28;20485;-80
2022/09/04 05:49:59;;;;;;;0.85;0.60;;;;;;;;;;4985072;28;20061;-79
2022/09/04 05:52:31;;;;;;;2.38;0.57;;;;;;;;;;4985912;28;20373;-80
2022/09/04 05:54:57;;;;;;;0.70;0.70;;;;;;;;;;5007590;28;20049;-81
2022/09/04 05:57:29;;;;;;;0.00;0.00;;;;;;;;;;5019989;28;20030;-80
2022/09/04 06:00:05;;;;;;;1.98;1.80;;;;;;;;;;4991128;28;20110;-80
2022/09/04 06:02:54;;;;;;;1.35;0.30;;;;;;;;;;5034963;28;20405;-80
2022/09/04 06:05:30;;;;;;;0.00;0.00;;;;;;;;;;5053573;28;20285;-79
2022/09/04 06:08:31;;;;;;;0.00;0.00;;;;;;;;;;5057118;28;20032;-80
2022/09/04 06:11:06;;;;;;;0.00;0.00;;;;;;;;;;5030199;28;20553;-81
2022/09/04 06:13:50;;;;;;;0.00;0.00;;;;;;;;;;5062288;28;20040;-80
2022/09/04 06:16:19;;;;;;;4.18;0.75;;;;;;;;;;5002829;28;20439;-80
2022/09/04 06:18:49;;;;;;;0.77;0.38;;;;;;;;;;5005138;28;20041;-80
2022/09/04 06:21:32;;;;;;;0.47;0.30;;;;;;;;;;5006596;28;20026;-80
2022/09/04 06:23:58;;;;;;;0.00;0.00;;;;;;;;;;5056948;28;20052;-81
2022/09/04 06:26:43;;;;;;;0.13;0.13;;;;;;;;;;5018623;28;20026;-81
2022/09/04 06:29:28;;;;;;;0.63;0.63;;;;;;;;;;4994424;28;20525;-79
2022/09/04 06:32:03;;;;;;;0.10;0.10;;;;;;;;;;4996077;28;20034;-80
2022/09/04 06:34:52;;;;;;;0.17;0.15;;;;;;;;;;5022376;28;20118;-80
2022/09/04 06:37:44;;;;;;;0.10;0.10;;;;;;;;;;5018405;28;20071;-78
2022/09/04 06:40:17;;;;;;;0.00;0.00;;;;;;;;;;4983243;28;20397;-79
2022/09/04 06:42:52;;;;;;;0.00;0.00;;;;;;;;;;5038298;28;20050;-82
2022/09/04 06:45:40;;;;;;;0.00;0.00;;;;;;;;;;5031072;28;20063;-80
2022/09/04 06:48:28;;;;;;;0.52;0.50;;;;;;;;;;5019253;28;20381;-79
2022/09/04 06:51:15;;;;;;;2.55;1.60;;;;;;;;;;5038551;28;20029;-81
2022/09/04 06:54:01;;;;;;;1.88;1.77;;;;;;;;;;4999790;28;20051;-79
2022/09/04 06:56:40;;;;;;;0.15;0.10;;;;;;;;;;5011315;28;20200;-80
2022/09/04 06:59:13;;;;;;;0.00;0.00;;;;;;;;;;4996034;28;20109;-80
2022/09/04 07:01:46;;;;;;;11.95;1.77;;;;;;;;;;4988597;28;20097;-80
2022/09/04 07:04:27;;;;;;;0.43;0.43;;;;;;;;;;5004706;28;20030;-80
2022/09/04 07:07:12;;;;;;;0.63;0.63;;;;;;;;;;5015079;28;20122;-79
2022/09/04 07:09:49;;;;;;;0.00;0.00;;;;;;;;;;4987609;28;20376;-81
2022/09/04 07:12:18;;;;;;;0.00;0.00;;;;;;;;;;5007014;28;20050;-79
2022/09/04 07:15:07;;;;;;;0.10;0.10;;;;;;;;;;5002101;28;20460;-79
2022/09/04 07:17:36;;;;;;;0.57;0.57;;;;;;;;;;5010165;28;20426;-81
2022/09/04 07:20:03;;;;;;;0.00;0.00;;;;;;;;;;5021040;28;20122;-81
2022/09/04 07:22:41;;;;;;;1.77;0.93;;;;;;;;;;5003753;28;20117;-78
2022/09/04 07:25:25;;;;;;;0.00;0.00;;;;;;;;;;5004152;28;20111;-81
2022/09/04 07:28:05;;;;;;;0.00;0.00;;;;;;;;;;5075667;28;20113;-81
2022/09/04 07:30:34;;;;;;;2.08;1.58;;;;;;;;;;5061663;28;20037;-81
2022/09/04 07:33:27;;;;;;;1.05;0.98;;;;;;;;;;4987248;28;20050;-80
2022/09/04 07:36:06;;;;;;;0.00;0.00;;;;;;;;;;4988438;28;20384;-80
2022/09/04 07:38:33;;;;;;;1.38;0.13;;;;;;;;;;4999214;28;20022;-80
2022/09/04 07:41:22;;;;;;;1.80;0.52;;;;;;;;;;4985689;28;20023;-80
2022/09/04 07:44:02;;;;;;;0.00;0.00;;;;;;;;;;4986729;28;20035;-80
2022/09/04 07:46:40;;;;;;;0.00;0.00;;;;;;;;;;4986843;28;20056;-80
2022/09/04 07:49:08;;;;;;;1.95;0.40;;;;;;;;;;4988129;28;20126;-79
2022/09/04 07:51:42;;;;;;;0.00;0.00;;;;;;;;;;4998055;28;20030;-80
2022/09/04 07:54:29;;;;;;;0.00;0.00;;;;;;;;;;5009767;28;20034;-79
2022/09/04 07:57:11;;;;;;;0.00;0.00;;;;;;;;;;5011447;28;20036;-78
2022/09/04 07:59:47;;;;;;;0.00;0.00;;;;;;;;;;5008363;28;20107;-79
2022/09/04 08:02:21;;;;;;;1.42;1.33;;;;;;;;;;5017279;28;20022;-79
2022/09/04 08:05:02;;;;;;;0.00;0.00;;;;;;;;;;5046987;28;20130;-80
2022/09/04 08:07:37;;;;;;;0.00;0.00;;;;;;;;;;4993094;28;20027;-81
2022/09/04 08:10:22;;;;;;;0.32;0.32;;;;;;;;;;4994414;28;20376;-80
2022/09/04 08:12:53;;;;;;;0.00;0.00;;;;;;;;;;4994338;28;20413;-80
2022/09/04 08:15:23;;;;;;;0.20;0.20;;;;;;;;;;4989333;28;20022;-80
2022/09/04 08:18:00;;;;;;;1.08;0.85;;;;;;;;;;4991944;28;20067;-80
2022/09/04 08:20:27;;;;;;;0.08;0.08;;;;;;;;;;5023014;28;20028;-80
2022/09/04 08:23:18;;;;;;;0.00;0.00;;;;;;;;;;5066524;28;20131;-80
2022/09/04 08:25:54;;;;;;;0.00;0.00;;;;;;;;;;5014275;28;20190;-80
2022/09/04 08:28:20;;;;;;;1.63;0.77;;;;;;;;;;5001612;28;20073;-81
2022/09/04 08:31:07;;;;;;;0.10;0.10;;;;;;;;;;5023958;28;20034;-80
2022/09/04 08:33:38;;;;;;;0.50;0.50;;;;;;;;;;4989585;28;20118;-80
2022/09/04 08:36:10;;;;;;;0.25;0.20;;;;;;;;;;5029424;28;20030;-80
2022/09/04 08:38:56;;;;;;;2.78;0.38;;;;;;;;;;5037596;28;20031;-79
2022/09/04 08:41:41;;;;;;;0.43;0.43;;;;;;;;;;4991543;28;20087;-80
2022/09/04 08:44:25;;;;;;;0.10;0.10;;;;;;;;;;4996301;28;20035;-80
2022/09/04 08:47:11;;;;;;;0.25;0.25;;;;;;;;;;4995182;28;20069;-79
2022/09/04 08:49:56;;;;;;;0.00;0.00;;;;;;;;;;5071404;28;20061;-81
2022/09/04 08:52:41;;;;;;;0.00;0.00;;;;;;;;;;4999054;28;20054;-79
2022/09/04 08:55:13;;;;;;;0.00;0.00;;;;;;;;;;5047212;28;20024;-81
2022/09/04 08:57:52;;;;;;;1.23;1.17;;;;;;;;;;5002560;28;20414;-79
2022/09/04 09:00:20;;;;;;;0.00;0.00;;;;;;;;;;5030048;28;20027;-79
2022/09/04 09:03:04;;;;;;;0.00;0.00;;;;;;;;;;4999247;28;20026;-81
2022/09/04 09:05:46;;;;;;;0.00;0.00;;;;;;;;;;4991966;28;20035;-82
2022/09/04 09:08:23;;;;;;;0.38;0.30;;;;;;;;;;4986410;28;20034;-81
2022/09/04 09:10:55;;;;;;;0.68;0.50;;;;;;;;;;4992231;28;20042;-80
2022/09/04 09:13:51;;;;;;;0.25;0.25;;;;;;;;;;5035910;28;20053;-80
2022/09/04 09:16:19;;;;;;;0.00;0.00;;;;;;;;;;5024170;28;20403;-80
2022/09/04 09:19:05;;;;;;;1.23;0.98;;;;;;;;;;4993545;28;20065;-81
2022/09/04 09:22:04;;;;;;;0.52;0.52;;;;;;;;;;5017135;28;20239;-80
2022/09/04 09:25:02;;;;;;;0.00;0.00;;;;;;;;;;5025794;28;20042;-82
2022/09/04 09:27:52;;;;;;;0.00;0.00;;;;;;;;;;5020357;28;20044;-80
2022/09/04 09:30:22;;;;;;;0.00;0.00;;;;;;;;;;5033580;28;20050;-79
2022/09/04 09:32:49;;;;;;;1.88;0.17;;;;;;;;;;5071192;28;20030;-80
2022/09/04 09:35:35;;;;;;;0.00;0.00;;;;;;;;;;4992160;28;20031;-80
2022/09/04 09:38:11;;;;;;;0.00;0.00;;;;;;;;;;5011175;28;20125;-80
2022/09/04 09:40:45;;;;;;;0.00;0.00;;;;;;;;;;4995187;28;20472;-79
2022/09/04 09:43:40;;;;;;;0.00;0.00;;;;;;;;;;5022332;28;20407;-80
2022/09/04 09:46:07;;;;;;;2.72;1.55;;;;;;;;;;5020963;28;21027;-80
2022/09/04 09:48:52;;;;;;;0.52;0.30;;;;;;;;;;5002092;28;20093;-79
2022/09/04 09:51:33;;;;;;;0.00;0.00;;;;;;;;;;5016518;28;20045;-80
2022/09/04 09:54:03;;;;;;;0.00;0.00;;;;;;;;;;4999622;28;20043;-81
2022/09/04 09:56:44;;;;;;;0.10;0.10;;;;;;;;;;5025470;28;20149;-81
2022/09/04 09:59:23;;;;;;;0.22;0.17;;;;;;;;;;5012603;28;20022;-80
2022/09/04 10:02:08;;;;;;;0.95;0.65;;;;;;;;;;4999220;28;20440;-80
2022/09/04 10:04:49;;;;;;;1.17;1.17;;;;;;;;;;5016577;28;20067;-80
2022/09/04 10:07:31;;;;;;;0.22;0.20;;;;;;;;;;5016625;28;20038;-80
2022/09/04 10:10:16;;;;;;;0.00;0.00;;;;;;;;;;4999788;28;20492;-80
2022/09/04 10:12:59;;;;;;;0.00;0.00;;;;;;;;;;5002819;28;20149;-81
2022/09/04 10:15:55;;;;;;;0.85;0.45;;;;;;;;;;5022061;28;20023;-83
2022/09/04 10:18:40;;;;;;;1.00;1.00;;;;;;;;;;5015715;28;20083;-79
2022/09/04 10:21:21;;;;;;;0.00;0.00;;;;;;;;;;5024900;28;20572;-80
2022/09/04 10:24:09;;;;;;;0.00;0.00;;;;;;;;;;5008046;28;20026;-82
2022/09/04 10:26:54;;;;;;;0.00;0.00;;;;;;;;;;5011169;28;20456;-81
2022/09/04 10:29:20;;;;;;;0.00;0.00;;;;;;;;;;5048862;28;20554;-80
2022/09/04 10:32:07;;;;;;;2.05;1.95;;;;;;;;;;5057636;28;20022;-81
2022/09/04 10:35:00;;;;;;;0.55;0.20;;;;;;;;;;4989805;28;20031;-81
2022/09/04 10:37:35;;;;;;;0.00;0.00;;;;;;;;;;4996456;28;20440;-81
2022/09/04 10:43:09;;;;;;;0.00;0.00;;;;;;;;;;5022497;28;20089;-79
2022/09/04 10:45:44;;;;;;;0.00;0.00;;;;;;;;;;4982254;28;20046;-79
2022/09/04 10:48:21;;;;;;;2.30;0.95;;;;;;;;;;5004575;28;20084;-80
2022/09/04 10:51:07;;;;;;;0.00;0.00;;;;;;;;;;5001256;28;20072;-81
2022/09/04 10:53:42;;;;;;;0.00;0.00;;;;;;;;;;4995000;28;20050;-80
2022/09/04 10:56:11;;;;;;;0.00;0.00;;;;;;;;;;5023980;28;20077;-79
2022/09/04 10:59:17;;;;;;;0.00;0.00;;;;;;;;;;5021732;28;20045;-80
2022/09/04 11:01:53;;;;;;;0.00;0.00;;;;;;;;;;5006574;28;20033;-80
2022/09/04 11:04:28;;;;;;;0.08;0.08;;;;;;;;;;5008733;28;20486;-80
2022/09/04 11:06:56;;;;;;;0.00;0.00;;;;;;;;;;5017340;28;20041;-80
2022/09/04 11:09:42;;;;;;;0.00;0.00;;;;;;;;;;5015195;28;20030;-81
2022/09/04 11:12:21;;;;;;;0.10;0.10;;;;;;;;;;5028511;22;20049;-81
2022/09/04 11:14:55;;;;;;;0.00;0.00;;;;;;;;;;5025861;28;20475;-82
2022/09/04 11:17:31;;;;;;;0.00;0.00;;;;;;;;;;5030183;28;20029;-81
2022/09/04 11:20:06;;;;;;;0.70;0.70;;;;;;;;;;5024442;28;20038;-81
2022/09/04 11:22:43;;;;;;;0.00;0.00;;;;;;;;;;5020944;28;20125;-81
2022/09/04 11:25:24;;;;;;;0.10;0.10;;;;;;;;;;5021025;28;20070;-81
2022/09/04 11:28:13;;;;;;;0.00;0.00;;;;;;;;;;5024828;28;20044;-81
2022/09/04 11:30:50;;;;;;;0.00;0.00;;;;;;;;;;5023987;28;20060;-81
2022/09/04 11:33:37;;;;;;;0.32;0.32;;;;;;;;;;5021477;28;20063;-81
2022/09/04 11:36:22;;;;;;;0.00;0.00;;;;;;;;;;5020509;28;20021;-80
2022/09/04 11:38:48;;;;;;;0.55;0.55;;;;;;;;;;5023996;28;20080;-81
2022/09/04 11:41:33;;;;;;;0.00;0.00;;;;;;;;;;5020260;28;20021;-81
2022/09/04 11:44:18;;;;;;;0.00;0.00;;;;;;;;;;5034069;27;20117;-81
2022/09/04 11:46:59;;;;;;;0.00;0.00;;;;;;;;;;5033849;27;20069;-80
2022/09/04 11:49:33;;;;;;;0.00;0.00;;;;;;;;;;5050367;27;20076;-80
2022/09/04 11:52:15;;;;;;;0.00;0.00;;;;;;;;;;5042687;27;20104;-80
2022/09/04 11:55:00;;;;;;;0.00;0.00;;;;;;;;;;5039110;27;20023;-79
2022/09/04 11:57:35;;;;;;;0.00;0.00;;;;;;;;;;5070816;27;20019;-80
2022/09/04 12:00:09;;;;;;;0.00;0.00;;;;;;;;;;5080137;27;20108;-80
2022/09/04 12:02:55;;;;;;;0.00;0.00;;;;;;;;;;5067911;27;20038;-80
2022/09/04 12:05:27;;;;;;;0.00;0.00;;;;;;;;;;5059587;27;20061;-80
2022/09/04 12:08:12;;;;;;;0.00;0.00;;;;;;;;;;5075510;27;20030;-80
2022/09/04 12:10:51;;;;;;;0.00;0.00;;;;;;;;;;5040568;27;20031;-80
2022/09/04 12:13:17;;;;;;;0.00;0.00;;;;;;;;;;5060880;27;20084;-79
2022/09/04 12:15:53;;;;;;;0.00;0.00;;;;;;;;;;5073260;27;20526;-81
2022/09/04 12:18:30;;;;;;;0.00;0.00;;;;;;;;;;5082459;27;20016;-81
2022/09/04 12:21:36;;;;;;;0.00;0.00;;;;;;;;;;5071632;27;20117;-80
2022/09/04 12:24:02;;;;;;;0.00;0.00;;;;;;;;;;4999197;28;20363;-80
2022/09/04 12:26:41;;;;;;;0.00;0.00;;;;;;;;;;5025314;28;20545;-81
2022/09/04 12:29:26;;;;;;;0.00;0.00;;;;;;;;;;5019894;27;20120;-81
2022/09/04 12:32:03;;;;;;;1.55;1.55;;;;;;;;;;5027510;27;20599;-80
2022/09/04 12:34:29;;;;;;;0.00;0.00;;;;;;;;;;5076910;27;20312;-81
2022/09/04 12:37:10;;;;;;;0.00;0.00;;;;;;;;;;5047939;27;20086;-79
2022/09/04 12:39:51;;;;;;;0.00;0.00;;;;;;;;;;5006946;28;20375;-80
2022/09/04 12:42:18;;;;;;;0.00;0.00;;;;;;;;;;5021275;28;20479;-80
2022/09/04 12:45:04;;;;;;;0.00;0.00;;;;;;;;;;5037717;27;20041;-80
2022/09/04 12:47:50;;;;;;;0.00;0.00;;;;;;;;;;5013847;28;20483;-81
2022/09/04 12:50:27;;;;;;;0.00;0.00;;;;;;;;;;5021906;27;20029;-81
2022/09/04 12:53:11;;;;;;;0.00;0.00;;;;;;;;;;5036443;27;20372;-80
2022/09/04 12:56:14;;;;;;;0.00;0.00;;;;;;;;;;5022359;28;20105;-81
2022/09/04 12:59:06;;;;;;;0.00;0.00;;;;;;;;;;4971376;28;20035;-80
2022/09/04 13:01:35;;;;;;;0.00;0.00;;;;;;;;;;5071287;27;20043;-80
2022/09/04 13:04:08;;;;;;;0.00;0.00;;;;;;;;;;5030062;28;20053;-80
2022/09/04 13:06:40;;;;;;;0.00;0.00;;;;;;;;;;5009306;28;20124;-80
2022/09/04 13:09:12;;;;;;;0.00;0.00;;;;;;;;;;5015625;28;20540;-80
2022/09/04 13:11:57;;;;;;;0.00;0.00;;;;;;;;;;5017094;27;20487;-80
2022/09/04 13:14:30;;;;;;;0.00;0.00;;;;;;;;;;5018351;28;20567;-80
2022/09/04 13:17:08;;;;;;;0.00;0.00;;;;;;;;;;5015572;28;20032;-80
2022/09/04 13:19:45;;;;;;;0.00;0.00;;;;;;;;;;5017437;28;20480;-80
2022/09/04 13:22:14;;;;;;;0.20;0.20;;;;;;;;;;5014446;28;20077;-80
2022/09/04 13:25:01;;;;;;;0.93;0.88;;;;;;;;;;5012316;28;20487;-81
2022/09/04 13:27:48;;;;;;;0.40;0.40;;;;;;;;;;5021355;28;20108;-79
2022/09/04 13:30:20;;;;;;;0.00;0.00;;;;;;;;;;5029643;28;20037;-80
2022/09/04 13:33:00;;;;;;;0.35;0.35;;;;;;;;;;5018131;28;20054;-79
2022/09/04 13:35:30;;;;;;;0.00;0.00;;;;;;;;;;5037479;28;20019;-80
2022/09/04 13:38:13;;;;;;;0.00;0.00;;;;;;;;;;5047955;28;20025;-79
2022/09/04 13:41:01;;;;;;;0.10;0.10;;;;;;;;;;5011869;28;20495;-79
2022/09/04 13:43:42;;;;;;;6.32;6.03;;;;;;;;;;5012924;28;20041;-80
2022/09/04 13:46:11;;;;;;;5.05;0.98;;;;;;;;;;5010776;28;20026;-80
2022/09/04 13:48:51;;;;;;;0.00;0.00;;;;;;;;;;5012541;28;20022;-79
2022/09/04 13:51:23;;;;;;;0.00;0.00;;;;;;;;;;5021273;27;20071;-80
2022/09/04 13:53:56;;;;;;;1.35;1.35;;;;;;;;;;5072818;27;20492;-80
2022/09/04 13:56:43;;;;;;;0.00;0.00;;;;;;;;;;5080778;27;20024;-79
2022/09/04 13:59:15;;;;;;;0.10;0.10;;;;;;;;;;5086456;27;20491;-80
2022/09/04 14:01:44;;;;;;;0.00;0.00;;;;;;;;;;5068650;27;20029;-80
2022/09/04 14:04:18;;;;;;;0.20;0.15;;;;;;;;;;5067221;27;20433;-80
2022/09/04 14:06:45;;;;;;;0.00;0.00;;;;;;;;;;5064683;27;20019;-80
2022/09/04 14:09:12;;;;;;;0.00;0.00;;;;;;;;;;5046437;27;20026;-80
2022/09/04 14:11:57;;;;;;;8.68;2.92;;;;;;;;;;5078514;27;20045;-80
2022/09/04 14:14:42;;;;;;;0.05;0.05;;;;;;;;;;5075150;27;20027;-80
2022/09/04 14:17:08;;;;;;;0.00;0.00;;;;;;;;;;5085033;27;20029;-81
2022/09/04 14:19:41;;;;;;;0.00;0.00;;;;;;;;;;5083591;27;20019;-81
2022/09/04 14:22:25;;;;;;;0.00;0.00;;;;;;;;;;5068731;27;20022;-80
2022/09/04 14:25:11;;;;;;;0.00;0.00;;;;;;;;;;5080165;27;20106;-80
2022/09/04 14:27:46;;;;;;;0.00;0.00;;;;;;;;;;5082451;27;20338;-81
2022/09/04 14:30:14;;;;;;;0.20;0.20;;;;;;;;;;5045352;27;20115;-80
2022/09/04 14:32:41;;;;;;;0.00;0.00;;;;;;;;;;5068926;27;20573;-81
2022/09/04 14:35:26;;;;;;;0.00;0.00;;;;;;;;;;5051682;27;20062;-80
2022/09/04 14:37:56;;;;;;;0.80;0.80;;;;;;;;;;5075597;27;20060;-80
2022/09/04 14:40:29;;;;;;;0.00;0.00;;;;;;;;;;5074092;27;20063;-80
2022/09/04 14:43:01;;;;;;;0.00;0.00;;;;;;;;;;5065441;27;20108;-79
2022/09/04 14:45:50;;;;;;;0.15;0.15;;;;;;;;;;5074935;27;20385;-80
2022/09/04 14:48:22;;;;;;;0.20;0.20;;;;;;;;;;5071343;27;20026;-80
2022/09/04 14:50:56;;;;;;;1.52;1.52;;;;;;;;;;5050233;27;20480;-81
2022/09/04 14:53:22;;;;;;;0.00;0.00;;;;;;;;;;5063188;27;20026;-80
2022/09/04 14:56:07;;;;;;;0.00;0.00;;;;;;;;;;5077304;27;20015;-79
2022/09/04 14:58:35;;;;;;;0.95;0.90;;;;;;;;;;5062971;27;20110;-80
2022/09/04 15:01:17;;;;;;;0.00;0.00;;;;;;;;;;5054097;27;20510;-81
2022/09/04 15:03:47;;;;;;;0.00;0.00;;;;;;;;;;5080200;27;20038;-81
2022/09/04 15:06:15;;;;;;;0.00;0.00;;;;;;;;;;5072143;27;20531;-80
2022/09/04 15:08:43;;;;;;;0.00;0.00;;;;;;;;;;5059200;27;20037;-80
2022/09/04 15:11:12;;;;;;;0.00;0.00;;;;;;;;;;5059312;27;20047;-80
2022/09/04 15:13:41;;;;;;;0.00;0.00;;;;;;;;;;5081337;27;20127;-82
2022/09/04 15:16:10;;;;;;;1.73;1.50;;;;;;;;;;5064380;27;20089;-79
2022/09/04 15:18:39;;;;;;;0.43;0.28;;;;;;;;;;5068768;27;20016;-79
2022/09/04 15:21:24;;;;;;;0.00;0.00;;;;;;;;;;5081030;27;20516;-81
2022/09/04 15:24:17;;;;;;;0.00;0.00;;;;;;;;;;5011421;28;20033;-80
2022/09/04 15:26:58;;;;;;;0.05;0.05;;;;;;;;;;5020340;28;20053;-81
2022/09/04 15:29:32;;;;;;;0.00;0.00;;;;;;;;;;5022406;28;20057;-80
2022/09/04 15:32:09;;;;;;;0.00;0.00;;;;;;;;;;5022933;28;20059;-80
2022/09/04 15:34:36;;;;;;;0.00;0.00;;;;;;;;;;5017321;28;20026;-80
2022/09/04 15:37:11;;;;;;;0.43;0.20;;;;;;;;;;5031991;28;20029;-80
2022/09/04 15:39:47;;;;;;;0.03;0.03;;;;;;;;;;5021560;28;20026;-80
2022/09/04 15:42:31;;;;;;;0.00;0.00;;;;;;;;;;5020917;28;20030;-80
2022/09/04 15:44:59;;;;;;;0.00;0.00;;;;;;;;;;5024887;28;20026;-80
2022/09/04 15:47:44;;;;;;;0.80;0.80;;;;;;;;;;5012913;28;20037;-80
2022/09/04 15:50:22;;;;;;;0.00;0.00;;;;;;;;;;5014241;28;20032;-80